sensor_id;sensor_type;location;lat;lon;timestamp;pressure;altitude;pressure_sealevel;temperature;humidity
18749;BME280;9503;53.560;10.246;2023-08-01T00:01:33;99115.34;;;22.75;87.13
18749;BME280;9503;53.560;10.246;2023-08-01T00:04:00;99112.69;;;22.76;86.81
18749;BME280;9503;53.560;10.246;2023-08-01T00:06:27;99112.66;;;22.45;87.75
18749;BME280;9503;53.560;10.246;2023-08-01T00:08:53;99110.91;;;21.37;92.45
18749;BME280;9503;53.560;10.246;2023-08-01T00:11:20;99112.00;;;22.37;88.31
18749;BME280;9503;53.560;10.246;2023-08-01T00:13:46;99092.91;;;21.99;90.23
18749;BME280;9503;53.560;10.246;2023-08-01T00:16:14;99101.59;;;22.68;87.26
18749;BME280;9503;53.560;10.246;2023-08-01T00:18:41;99097.81;;;23.11;84.70
18749;BME280;9503;53.560;10.246;2023-08-01T00:21:07;99093.59;;;23.07;84.04
18749;BME280;9503;53.560;10.246;2023-08-01T00:23:35;99092.09;;;22.33;88.04
18749;BME280;9503;53.560;10.246;2023-08-01T00:26:02;99082.06;;;22.81;85.71
18749;BME280;9503;53.560;10.246;2023-08-01T00:28:29;99079.44;;;23.14;84.00
18749;BME280;9503;53.560;10.246;2023-08-01T00:31:02;99068.09;;;23.43;82.41
18749;BME280;9503;53.560;10.246;2023-08-01T00:33:30;99057.38;;;23.23;82.80
18749;BME280;9503;53.560;10.246;2023-08-01T00:35:56;99054.44;;;23.04;83.72
18749;BME280;9503;53.560;10.246;2023-08-01T00:38:23;99054.09;;;22.85;83.49
18749;BME280;9503;53.560;10.246;2023-08-01T00:40:50;99040.63;;;22.68;83.76
18749;BME280;9503;53.560;10.246;2023-08-01T00:43:16;99039.56;;;22.75;83.28
18749;BME280;9503;53.560;10.246;2023-08-01T00:45:45;99039.88;;;22.95;82.03
18749;BME280;9503;53.560;10.246;2023-08-01T00:48:12;99023.75;;;23.10;82.58
18749;BME280;9503;53.560;10.246;2023-08-01T00:50:40;99021.84;;;23.15;81.92
18749;BME280;9503;53.560;10.246;2023-08-01T00:53:06;99028.59;;;23.23;81.50
18749;BME280;9503;53.560;10.246;2023-08-01T00:55:34;99033.09;;;23.17;81.30
18749;BME280;9503;53.560;10.246;2023-08-01T00:58:01;99028.53;;;23.52;80.34
18749;BME280;9503;53.560;10.246;2023-08-01T01:00:27;99022.88;;;23.10;81.52
18749;BME280;9503;53.560;10.246;2023-08-01T01:02:55;99023.63;;;23.43;80.89
18749;BME280;9503;53.560;10.246;2023-08-01T01:05:22;99025.94;;;23.52;80.38
18749;BME280;9503;53.560;10.246;2023-08-01T01:07:52;99010.31;;;23.49;80.03
18749;BME280;9503;53.560;10.246;2023-08-01T01:10:19;99012.00;;;23.52;80.04
18749;BME280;9503;53.560;10.246;2023-08-01T01:12:45;99007.91;;;23.43;80.38
18749;BME280;9503;53.560;10.246;2023-08-01T01:15:12;99009.22;;;23.30;80.99
18749;BME280;9503;53.560;10.246;2023-08-01T01:17:39;99001.72;;;23.46;80.51
18749;BME280;9503;53.560;10.246;2023-08-01T01:20:06;98999.88;;;23.21;81.32
18749;BME280;9503;53.560;10.246;2023-08-01T01:22:34;98996.88;;;23.05;81.55
18749;BME280;9503;53.560;10.246;2023-08-01T01:25:04;98989.25;;;22.99;81.68
18749;BME280;9503;53.560;10.246;2023-08-01T01:27:32;98987.91;;;23.14;81.51
18749;BME280;9503;53.560;10.246;2023-08-01T01:30:00;98983.06;;;23.30;80.82
18749;BME280;9503;53.560;10.246;2023-08-01T01:32:29;98984.09;;;23.24;81.12
18749;BME280;9503;53.560;10.246;2023-08-01T01:34:56;98982.75;;;23.11;81.48
18749;BME280;9503;53.560;10.246;2023-08-01T01:37:23;98982.63;;;23.15;81.61
18749;BME280;9503;53.560;10.246;2023-08-01T01:39:51;98980.06;;;23.14;81.55
18749;BME280;9503;53.560;10.246;2023-08-01T01:42:17;98974.66;;;23.19;80.96
18749;BME280;9503;53.560;10.246;2023-08-01T01:44:44;98962.41;;;23.21;80.83
18749;BME280;9503;53.560;10.246;2023-08-01T01:47:10;98962.25;;;22.97;81.29
18749;BME280;9503;53.560;10.246;2023-08-01T01:49:37;98962.06;;;23.03;81.74
18749;BME280;9503;53.560;10.246;2023-08-01T01:52:04;98960.25;;;23.05;81.30
18749;BME280;9503;53.560;10.246;2023-08-01T01:54:31;98952.00;;;22.91;81.86
18749;BME280;9503;53.560;10.246;2023-08-01T01:56:59;98947.38;;;23.27;80.60
18749;BME280;9503;53.560;10.246;2023-08-01T01:59:25;98944.44;;;23.10;81.41
18749;BME280;9503;53.560;10.246;2023-08-01T02:01:52;98941.28;;;23.27;80.70
18749;BME280;9503;53.560;10.246;2023-08-01T02:04:18;98933.44;;;23.00;80.38
18749;BME280;9503;53.560;10.246;2023-08-01T02:06:45;98936.03;;;23.00;81.76
18749;BME280;9503;53.560;10.246;2023-08-01T02:09:11;98935.44;;;23.19;80.60
18749;BME280;9503;53.560;10.246;2023-08-01T02:11:38;98932.41;;;23.04;81.19
18749;BME280;9503;53.560;10.246;2023-08-01T02:14:06;98928.28;;;22.68;82.76
18749;BME280;9503;53.560;10.246;2023-08-01T02:16:33;98924.56;;;23.04;81.37
18749;BME280;9503;53.560;10.246;2023-08-01T02:18:59;98921.56;;;23.16;81.12
18749;BME280;9503;53.560;10.246;2023-08-01T02:21:26;98919.34;;;23.04;81.18
18749;BME280;9503;53.560;10.246;2023-08-01T02:23:52;98919.38;;;23.31;80.29
18749;BME280;9503;53.560;10.246;2023-08-01T02:26:19;98916.81;;;23.29;80.38
18749;BME280;9503;53.560;10.246;2023-08-01T02:28:47;98918.47;;;23.32;80.72
18749;BME280;9503;53.560;10.246;2023-08-01T02:31:16;98917.72;;;23.28;80.50
18749;BME280;9503;53.560;10.246;2023-08-01T02:33:42;98909.59;;;23.09;81.33
18749;BME280;9503;53.560;10.246;2023-08-01T02:36:09;98913.38;;;23.01;81.80
18749;BME280;9503;53.560;10.246;2023-08-01T02:38:35;98908.97;;;23.29;80.86
18749;BME280;9503;53.560;10.246;2023-08-01T02:41:02;98902.66;;;22.80;82.62
18749;BME280;9503;53.560;10.246;2023-08-01T02:43:28;98908.50;;;23.16;81.40
18749;BME280;9503;53.560;10.246;2023-08-01T02:45:55;98913.53;;;23.23;81.24
18749;BME280;9503;53.560;10.246;2023-08-01T02:48:23;98907.72;;;23.13;81.87
18749;BME280;9503;53.560;10.246;2023-08-01T02:50:50;98895.63;;;23.10;81.64
18749;BME280;9503;53.560;10.246;2023-08-01T02:53:16;98895.94;;;23.01;82.34
18749;BME280;9503;53.560;10.246;2023-08-01T02:55:44;98892.16;;;23.10;81.76
18749;BME280;9503;53.560;10.246;2023-08-01T02:58:11;98894.97;;;23.04;82.37
18749;BME280;9503;53.560;10.246;2023-08-01T03:00:38;98892.59;;;22.96;82.69
18749;BME280;9503;53.560;10.246;2023-08-01T03:03:05;98893.00;;;22.82;83.26
18749;BME280;9503;53.560;10.246;2023-08-01T03:05:35;98892.94;;;23.12;82.52
18749;BME280;9503;53.560;10.246;2023-08-01T03:08:02;98885.28;;;23.07;82.50
18749;BME280;9503;53.560;10.246;2023-08-01T03:10:29;98879.00;;;22.83;84.03
18749;BME280;9503;53.560;10.246;2023-08-01T03:12:55;98875.19;;;22.95;83.73
18749;BME280;9503;53.560;10.246;2023-08-01T03:15:22;98875.91;;;22.72;84.57
18749;BME280;9503;53.560;10.246;2023-08-01T03:17:49;98875.59;;;22.81;84.41
18749;BME280;9503;53.560;10.246;2023-08-01T03:20:15;98872.56;;;22.67;84.81
18749;BME280;9503;53.560;10.246;2023-08-01T03:22:43;98868.41;;;22.89;84.11
18749;BME280;9503;53.560;10.246;2023-08-01T03:25:10;98877.13;;;23.16;83.11
18749;BME280;9503;53.560;10.246;2023-08-01T03:27:37;98869.16;;;23.20;82.60
18749;BME280;9503;53.560;10.246;2023-08-01T03:30:04;98861.16;;;22.98;83.85
18749;BME280;9503;53.560;10.246;2023-08-01T03:32:34;98859.91;;;22.81;84.67
18749;BME280;9503;53.560;10.246;2023-08-01T03:35:02;98863.84;;;22.96;83.66
18749;BME280;9503;53.560;10.246;2023-08-01T03:37:29;98860.25;;;22.43;85.37
18749;BME280;9503;53.560;10.246;2023-08-01T03:39:57;98860.22;;;22.72;84.89
18749;BME280;9503;53.560;10.246;2023-08-01T03:42:23;98861.97;;;22.72;84.78
18749;BME280;9503;53.560;10.246;2023-08-01T03:44:50;98857.88;;;22.93;84.01
18749;BME280;9503;53.560;10.246;2023-08-01T03:47:17;98854.22;;;22.97;83.63
18749;BME280;9503;53.560;10.246;2023-08-01T03:49:43;98859.72;;;23.15;83.43
18749;BME280;9503;53.560;10.246;2023-08-01T03:52:10;98857.91;;;23.17;83.07
18749;BME280;9503;53.560;10.246;2023-08-01T03:54:36;98854.59;;;23.12;83.03
18749;BME280;9503;53.560;10.246;2023-08-01T03:57:05;98857.22;;;22.86;84.52
18749;BME280;9503;53.560;10.246;2023-08-01T03:59:31;98851.44;;;23.29;82.82
18749;BME280;9503;53.560;10.246;2023-08-01T04:01:58;98841.41;;;22.89;83.69
18749;BME280;9503;53.560;10.246;2023-08-01T04:04:25;98840.66;;;22.84;84.21
18749;BME280;9503;53.560;10.246;2023-08-01T04:06:51;98851.06;;;23.13;83.22
18749;BME280;9503;53.560;10.246;2023-08-01T04:09:18;98842.84;;;22.99;83.33
18749;BME280;9503;53.560;10.246;2023-08-01T04:11:45;98837.88;;;22.92;84.51
18749;BME280;9503;53.560;10.246;2023-08-01T04:14:13;98843.19;;;23.15;83.80
18749;BME280;9503;53.560;10.246;2023-08-01T04:16:39;98844.13;;;23.39;82.46
18749;BME280;9503;53.560;10.246;2023-08-01T04:19:06;98845.09;;;23.10;83.47
18749;BME280;9503;53.560;10.246;2023-08-01T04:21:33;98847.19;;;23.50;81.74
18749;BME280;9503;53.560;10.246;2023-08-01T04:23:59;98849.72;;;23.53;81.90
18749;BME280;9503;53.560;10.246;2023-08-01T04:26:26;98840.78;;;22.81;83.98
18749;BME280;9503;53.560;10.246;2023-08-01T04:28:52;98851.13;;;23.12;83.35
18749;BME280;9503;53.560;10.246;2023-08-01T04:31:20;98847.34;;;23.21;82.84
18749;BME280;9503;53.560;10.246;2023-08-01T04:33:47;98849.75;;;23.27;82.68
18749;BME280;9503;53.560;10.246;2023-08-01T04:36:14;98850.38;;;23.08;83.03
18749;BME280;9503;53.560;10.246;2023-08-01T04:38:40;98845.09;;;23.10;82.84
18749;BME280;9503;53.560;10.246;2023-08-01T04:41:07;98848.31;;;23.18;83.17
18749;BME280;9503;53.560;10.246;2023-08-01T04:43:33;98858.44;;;23.27;82.51
18749;BME280;9503;53.560;10.246;2023-08-01T04:46:00;98851.97;;;23.12;83.23
18749;BME280;9503;53.560;10.246;2023-08-01T04:48:28;98838.63;;;23.22;83.01
18749;BME280;9503;53.560;10.246;2023-08-01T04:50:54;98846.06;;;23.32;82.95
18749;BME280;9503;53.560;10.246;2023-08-01T04:53:21;98844.25;;;23.34;82.84
18749;BME280;9503;53.560;10.246;2023-08-01T04:55:48;98845.72;;;22.92;84.24
18749;BME280;9503;53.560;10.246;2023-08-01T04:58:14;98848.84;;;22.73;85.48
18749;BME280;9503;53.560;10.246;2023-08-01T05:00:42;98847.88;;;22.77;85.10
18749;BME280;9503;53.560;10.246;2023-08-01T05:03:08;98841.78;;;22.77;85.84
18749;BME280;9503;53.560;10.246;2023-08-01T05:05:36;98838.22;;;23.07;84.47
18749;BME280;9503;53.560;10.246;2023-08-01T05:08:03;98836.78;;;23.24;83.49
18749;BME280;9503;53.560;10.246;2023-08-01T05:10:30;98837.31;;;23.33;83.12
18749;BME280;9503;53.560;10.246;2023-08-01T05:12:56;98844.78;;;23.19;83.51
18749;BME280;9503;53.560;10.246;2023-08-01T05:15:23;98838.47;;;23.00;83.75
18749;BME280;9503;53.560;10.246;2023-08-01T05:17:50;98844.69;;;23.22;83.20
18749;BME280;9503;53.560;10.246;2023-08-01T05:20:17;98844.47;;;23.80;81.58
18749;BME280;9503;53.560;10.246;2023-08-01T05:22:45;98843.00;;;23.46;82.82
18749;BME280;9503;53.560;10.246;2023-08-01T05:25:11;98838.03;;;23.12;84.31
18749;BME280;9503;53.560;10.246;2023-08-01T05:27:38;98839.31;;;23.00;83.84
18749;BME280;9503;53.560;10.246;2023-08-01T05:30:05;98847.38;;;23.70;81.62
18749;BME280;9503;53.560;10.246;2023-08-01T05:32:32;98845.22;;;23.32;82.92
18749;BME280;9503;53.560;10.246;2023-08-01T05:34:59;98837.59;;;22.43;86.53
18749;BME280;9503;53.560;10.246;2023-08-01T05:37:25;98841.53;;;22.86;84.93
18749;BME280;9503;53.560;10.246;2023-08-01T05:39:53;98840.13;;;23.29;82.84
18749;BME280;9503;53.560;10.246;2023-08-01T05:42:20;98844.63;;;23.24;83.14
18749;BME280;9503;53.560;10.246;2023-08-01T05:44:46;98845.53;;;23.23;82.93
18749;BME280;9503;53.560;10.246;2023-08-01T05:47:13;98838.41;;;23.53;81.89
18749;BME280;9503;53.560;10.246;2023-08-01T05:49:40;98842.59;;;23.57;81.45
18749;BME280;9503;53.560;10.246;2023-08-01T05:52:07;98843.53;;;23.31;81.96
18749;BME280;9503;53.560;10.246;2023-08-01T05:54:34;98838.75;;;22.91;82.39
18749;BME280;9503;53.560;10.246;2023-08-01T05:57:02;98845.28;;;23.04;82.50
18749;BME280;9503;53.560;10.246;2023-08-01T05:59:28;98845.78;;;22.88;81.98
18749;BME280;9503;53.560;10.246;2023-08-01T06:01:55;98842.16;;;23.46;80.24
18749;BME280;9503;53.560;10.246;2023-08-01T06:04:22;98846.66;;;23.67;79.42
18749;BME280;9503;53.560;10.246;2023-08-01T06:06:48;98843.00;;;23.20;80.68
18749;BME280;9503;53.560;10.246;2023-08-01T06:09:15;98845.94;;;23.10;80.77
18749;BME280;9503;53.560;10.246;2023-08-01T06:11:42;98839.97;;;22.79;81.38
18749;BME280;9503;53.560;10.246;2023-08-01T06:14:10;98841.81;;;23.03;80.27
18749;BME280;9503;53.560;10.246;2023-08-01T06:16:37;98836.31;;;23.37;80.28
18749;BME280;9503;53.560;10.246;2023-08-01T06:19:03;98835.25;;;22.64;81.61
18749;BME280;9503;53.560;10.246;2023-08-01T06:21:30;98842.53;;;23.08;81.39
18749;BME280;9503;53.560;10.246;2023-08-01T06:23:56;98835.81;;;23.26;79.82
18749;BME280;9503;53.560;10.246;2023-08-01T06:26:23;98830.41;;;23.06;81.58
18749;BME280;9503;53.560;10.246;2023-08-01T06:28:50;98831.13;;;23.86;78.85
18749;BME280;9503;53.560;10.246;2023-08-01T06:31:20;98834.50;;;23.14;80.24
18749;BME280;9503;53.560;10.246;2023-08-01T06:33:46;98828.75;;;23.30;80.71
18749;BME280;9503;53.560;10.246;2023-08-01T06:36:13;98835.13;;;22.95;82.03
18749;BME280;9503;53.560;10.246;2023-08-01T06:38:41;98841.69;;;23.33;80.73
18749;BME280;9503;53.560;10.246;2023-08-01T06:41:08;98838.94;;;23.37;80.31
18749;BME280;9503;53.560;10.246;2023-08-01T06:43:35;98836.69;;;23.52;80.38
18749;BME280;9503;53.560;10.246;2023-08-01T06:46:02;98841.13;;;23.50;79.39
18749;BME280;9503;53.560;10.246;2023-08-01T06:48:31;98854.56;;;23.14;80.96
18749;BME280;9503;53.560;10.246;2023-08-01T06:50:59;98850.28;;;23.88;78.44
18749;BME280;9503;53.560;10.246;2023-08-01T06:53:26;98852.34;;;23.53;79.17
18749;BME280;9503;53.560;10.246;2023-08-01T06:55:53;98847.09;;;23.02;79.66
18749;BME280;9503;53.560;10.246;2023-08-01T06:58:19;98851.63;;;23.98;77.74
18749;BME280;9503;53.560;10.246;2023-08-01T07:00:46;98855.25;;;22.93;79.67
18749;BME280;9503;53.560;10.246;2023-08-01T07:03:13;98850.91;;;23.44;79.33
18749;BME280;9503;53.560;10.246;2023-08-01T07:05:40;98863.31;;;23.64;77.17
18749;BME280;9503;53.560;10.246;2023-08-01T07:08:07;98862.88;;;23.50;77.50
18749;BME280;9503;53.560;10.246;2023-08-01T07:10:34;98857.06;;;22.63;79.18
18749;BME280;9503;53.560;10.246;2023-08-01T07:13:01;98861.63;;;22.54;80.11
18749;BME280;9503;53.560;10.246;2023-08-01T07:15:29;98860.66;;;23.13;78.15
18749;BME280;9503;53.560;10.246;2023-08-01T07:17:56;98873.28;;;23.53;77.46
18749;BME280;9503;53.560;10.246;2023-08-01T07:20:22;98872.97;;;23.62;76.72
18749;BME280;9503;53.560;10.246;2023-08-01T07:22:50;98867.84;;;23.33;77.52
18749;BME280;9503;53.560;10.246;2023-08-01T07:25:17;98873.84;;;23.36;76.43
18749;BME280;9503;53.560;10.246;2023-08-01T07:27:44;98859.06;;;23.09;75.18
18749;BME280;9503;53.560;10.246;2023-08-01T07:30:11;98866.28;;;23.27;75.11
18749;BME280;9503;53.560;10.246;2023-08-01T07:32:38;98861.28;;;22.95;76.19
18749;BME280;9503;53.560;10.246;2023-08-01T07:35:06;98867.47;;;23.19;75.80
18749;BME280;9503;53.560;10.246;2023-08-01T07:37:33;98861.81;;;24.29;72.83
18749;BME280;9503;53.560;10.246;2023-08-01T07:40:01;98866.88;;;23.87;72.20
18749;BME280;9503;53.560;10.246;2023-08-01T07:42:27;98873.50;;;24.20;71.12
18749;BME280;9503;53.560;10.246;2023-08-01T07:44:55;98880.25;;;23.53;74.28
18749;BME280;9503;53.560;10.246;2023-08-01T07:47:22;98865.28;;;23.58;72.99
18749;BME280;9503;53.560;10.246;2023-08-01T07:49:49;98870.28;;;23.12;73.99
18749;BME280;9503;53.560;10.246;2023-08-01T07:52:15;98868.88;;;23.80;72.33
18749;BME280;9503;53.560;10.246;2023-08-01T07:54:42;98859.91;;;24.34;70.55
18749;BME280;9503;53.560;10.246;2023-08-01T07:57:10;98859.34;;;24.03;71.51
18749;BME280;9503;53.560;10.246;2023-08-01T07:59:37;98864.69;;;24.46;70.35
18749;BME280;9503;53.560;10.246;2023-08-01T08:02:04;98863.03;;;23.97;73.15
18749;BME280;9503;53.560;10.246;2023-08-01T08:04:31;98866.47;;;23.23;75.42
18749;BME280;9503;53.560;10.246;2023-08-01T08:06:58;98870.66;;;24.50;71.68
18749;BME280;9503;53.560;10.246;2023-08-01T08:09:25;98875.41;;;23.92;71.52
18749;BME280;9503;53.560;10.246;2023-08-01T08:11:52;98874.84;;;23.32;74.05
18749;BME280;9503;53.560;10.246;2023-08-01T08:14:19;98866.84;;;22.82;75.70
18749;BME280;9503;53.560;10.246;2023-08-01T08:16:46;98873.56;;;22.91;76.15
18749;BME280;9503;53.560;10.246;2023-08-01T08:19:13;98875.03;;;24.26;73.42
18749;BME280;9503;53.560;10.246;2023-08-01T08:21:40;98878.31;;;24.33;71.08
18749;BME280;9503;53.560;10.246;2023-08-01T08:24:06;98872.09;;;24.35;72.51
18749;BME280;9503;53.560;10.246;2023-08-01T08:26:33;98869.69;;;24.52;71.24
18749;BME280;9503;53.560;10.246;2023-08-01T08:29:02;98880.69;;;24.62;71.77
18749;BME280;9503;53.560;10.246;2023-08-01T08:31:31;98873.00;;;24.79;72.22
18749;BME280;9503;53.560;10.246;2023-08-01T08:33:58;98883.38;;;25.67;69.49
18749;BME280;9503;53.560;10.246;2023-08-01T08:36:24;98868.13;;;24.70;69.67
18749;BME280;9503;53.560;10.246;2023-08-01T08:38:51;98867.19;;;25.57;66.87
18749;BME280;9503;53.560;10.246;2023-08-01T08:41:21;98869.44;;;25.87;65.56
18749;BME280;9503;53.560;10.246;2023-08-01T08:43:48;98879.94;;;26.06;64.20
18749;BME280;9503;53.560;10.246;2023-08-01T08:46:16;98875.19;;;25.95;63.73
18749;BME280;9503;53.560;10.246;2023-08-01T08:48:45;98886.78;;;25.28;67.82
18749;BME280;9503;53.560;10.246;2023-08-01T08:51:12;98880.00;;;25.01;68.39
18749;BME280;9503;53.560;10.246;2023-08-01T08:53:40;98885.69;;;25.34;68.17
18749;BME280;9503;53.560;10.246;2023-08-01T08:56:08;98884.00;;;26.52;65.02
18749;BME280;9503;53.560;10.246;2023-08-01T08:58:36;98886.06;;;26.46;64.78
18749;BME280;9503;53.560;10.246;2023-08-01T09:01:05;98880.44;;;26.72;64.75
18749;BME280;9503;53.560;10.246;2023-08-01T09:03:33;98878.75;;;25.74;66.16
18749;BME280;9503;53.560;10.246;2023-08-01T09:06:04;98874.91;;;25.60;66.90
18749;BME280;9503;53.560;10.246;2023-08-01T09:08:35;98876.28;;;27.04;62.53
18749;BME280;9503;53.560;10.246;2023-08-01T09:11:03;98872.28;;;26.95;61.93
18749;BME280;9503;53.560;10.246;2023-08-01T09:13:29;98871.66;;;26.54;64.08
18749;BME280;9503;53.560;10.246;2023-08-01T09:15:56;98883.56;;;26.61;64.20
18749;BME280;9503;53.560;10.246;2023-08-01T09:18:23;98875.75;;;27.15;62.00
18749;BME280;9503;53.560;10.246;2023-08-01T09:20:50;98881.59;;;26.48;63.06
18749;BME280;9503;53.560;10.246;2023-08-01T09:23:18;98876.63;;;26.96;62.11
18749;BME280;9503;53.560;10.246;2023-08-01T09:25:44;98866.72;;;27.20;61.48
18749;BME280;9503;53.560;10.246;2023-08-01T09:28:15;98874.25;;;27.09;62.52
18749;BME280;9503;53.560;10.246;2023-08-01T09:30:46;98866.78;;;26.64;63.32
18749;BME280;9503;53.560;10.246;2023-08-01T09:33:13;98873.66;;;26.10;64.56
18749;BME280;9503;53.560;10.246;2023-08-01T09:35:40;98870.38;;;25.23;67.84
18749;BME280;9503;53.560;10.246;2023-08-01T09:38:08;98859.56;;;25.31;67.60
18749;BME280;9503;53.560;10.246;2023-08-01T09:40:37;98868.38;;;25.71;66.67
18749;BME280;9503;53.560;10.246;2023-08-01T09:43:04;98860.38;;;25.11;69.78
18749;BME280;9503;53.560;10.246;2023-08-01T09:45:31;98861.84;;;24.74;70.45
18749;BME280;9503;53.560;10.246;2023-08-01T09:47:59;98863.25;;;24.38;71.92
18749;BME280;9503;53.560;10.246;2023-08-01T09:50:26;98867.63;;;24.14;73.63
18749;BME280;9503;53.560;10.246;2023-08-01T09:52:53;98864.84;;;24.18;74.49
18749;BME280;9503;53.560;10.246;2023-08-01T09:55:25;98870.63;;;23.80;73.94
18749;BME280;9503;53.560;10.246;2023-08-01T09:57:57;98871.88;;;23.93;73.27
18749;BME280;9503;53.560;10.246;2023-08-01T10:00:25;98867.97;;;23.55;75.02
18749;BME280;9503;53.560;10.246;2023-08-01T10:02:52;98870.78;;;24.47;74.33
18749;BME280;9503;53.560;10.246;2023-08-01T10:05:20;98870.72;;;24.25;73.32
18749;BME280;9503;53.560;10.246;2023-08-01T10:07:48;98864.53;;;24.95;72.03
18749;BME280;9503;53.560;10.246;2023-08-01T10:10:17;98859.22;;;25.18;71.79
18749;BME280;9503;53.560;10.246;2023-08-01T10:12:45;98861.19;;;25.54;68.79
18749;BME280;9503;53.560;10.246;2023-08-01T10:15:15;98870.81;;;25.75;67.00
18749;BME280;9503;53.560;10.246;2023-08-01T10:17:42;98871.38;;;26.02;65.23
18749;BME280;9503;53.560;10.246;2023-08-01T10:20:10;98868.22;;;25.13;66.64
18749;BME280;9503;53.560;10.246;2023-08-01T10:22:39;98866.72;;;25.68;66.11
18749;BME280;9503;53.560;10.246;2023-08-01T10:25:07;98873.56;;;25.52;66.10
18749;BME280;9503;53.560;10.246;2023-08-01T10:27:35;98867.91;;;26.77;62.97
18749;BME280;9503;53.560;10.246;2023-08-01T10:30:03;98875.22;;;27.43;61.58
18749;BME280;9503;53.560;10.246;2023-08-01T10:32:34;98876.69;;;26.01;63.15
18749;BME280;9503;53.560;10.246;2023-08-01T10:35:01;98863.22;;;27.20;60.98
18749;BME280;9503;53.560;10.246;2023-08-01T10:37:38;98873.75;;;27.37;60.61
18749;BME280;9503;53.560;10.246;2023-08-01T10:40:06;98871.72;;;27.60;59.71
18749;BME280;9503;53.560;10.246;2023-08-01T10:42:37;98872.28;;;26.95;61.28
18749;BME280;9503;53.560;10.246;2023-08-01T10:45:04;98860.84;;;28.49;57.80
18749;BME280;9503;53.560;10.246;2023-08-01T10:47:33;98868.56;;;27.53;58.90
18749;BME280;9503;53.560;10.246;2023-08-01T10:50:00;98871.13;;;27.72;57.96
18749;BME280;9503;53.560;10.246;2023-08-01T10:52:26;98874.25;;;28.29;57.58
18749;BME280;9503;53.560;10.246;2023-08-01T10:54:57;98874.13;;;28.63;57.72
18749;BME280;9503;53.560;10.246;2023-08-01T10:57:26;98864.00;;;29.03;55.08
18749;BME280;9503;53.560;10.246;2023-08-01T10:59:54;98860.00;;;28.33;55.44
18749;BME280;9503;53.560;10.246;2023-08-01T11:02:22;98870.53;;;28.33;56.45
18749;BME280;9503;53.560;10.246;2023-08-01T11:05:01;98866.44;;;27.08;58.99
18749;BME280;9503;53.560;10.246;2023-08-01T11:07:28;98871.13;;;27.37;60.03
18749;BME280;9503;53.560;10.246;2023-08-01T11:10:06;98869.00;;;27.09;59.79
18749;BME280;9503;53.560;10.246;2023-08-01T11:12:34;98868.72;;;27.85;58.33
18749;BME280;9503;53.560;10.246;2023-08-01T11:15:02;98875.97;;;27.97;56.63
18749;BME280;9503;53.560;10.246;2023-08-01T11:17:31;98874.41;;;27.77;57.09
18749;BME280;9503;53.560;10.246;2023-08-01T11:20:03;98881.78;;;27.17;58.80
18749;BME280;9503;53.560;10.246;2023-08-01T11:22:30;98884.44;;;27.34;58.83
18749;BME280;9503;53.560;10.246;2023-08-01T11:24:57;98874.22;;;27.11;59.59
18749;BME280;9503;53.560;10.246;2023-08-01T11:27:24;98885.31;;;26.23;62.08
18749;BME280;9503;53.560;10.246;2023-08-01T11:29:51;98895.94;;;26.59;61.65
18749;BME280;9503;53.560;10.246;2023-08-01T11:32:18;98905.88;;;25.74;63.28
18749;BME280;9503;53.560;10.246;2023-08-01T11:34:45;98917.44;;;25.06;63.48
18749;BME280;9503;53.560;10.246;2023-08-01T11:37:17;98938.72;;;23.78;65.31
18749;BME280;9503;53.560;10.246;2023-08-01T11:39:46;98928.81;;;23.88;67.65
18749;BME280;9503;53.560;10.246;2023-08-01T11:42:15;98921.88;;;23.07;69.10
18749;BME280;9503;53.560;10.246;2023-08-01T11:44:42;98933.38;;;23.02;71.09
18749;BME280;9503;53.560;10.246;2023-08-01T11:47:11;98938.53;;;22.15;73.24
18749;BME280;9503;53.560;10.246;2023-08-01T11:49:38;98944.28;;;22.27;73.34
18749;BME280;9503;53.560;10.246;2023-08-01T11:52:06;98948.50;;;21.99;75.06
18749;BME280;9503;53.560;10.246;2023-08-01T11:54:44;98947.81;;;21.58;76.95
18749;BME280;9503;53.560;10.246;2023-08-01T11:57:10;98934.91;;;20.78;79.49
18749;BME280;9503;53.560;10.246;2023-08-01T11:59:46;98928.50;;;21.67;78.08
18749;BME280;9503;53.560;10.246;2023-08-01T12:02:20;98929.66;;;22.51;75.82
18749;BME280;9503;53.560;10.246;2023-08-01T12:04:47;98926.84;;;22.57;75.72
18749;BME280;9503;53.560;10.246;2023-08-01T12:07:14;98932.34;;;23.07;74.36
18749;BME280;9503;53.560;10.246;2023-08-01T12:09:43;98923.41;;;23.13;73.75
18749;BME280;9503;53.560;10.246;2023-08-01T12:12:09;98928.44;;;22.63;75.17
18749;BME280;9503;53.560;10.246;2023-08-01T12:14:39;98931.19;;;23.16;75.93
18749;BME280;9503;53.560;10.246;2023-08-01T12:17:06;98937.16;;;23.20;75.24
18749;BME280;9503;53.560;10.246;2023-08-01T12:19:33;98939.28;;;23.08;76.30
18749;BME280;9503;53.560;10.246;2023-08-01T12:22:00;98944.19;;;23.17;76.79
18749;BME280;9503;53.560;10.246;2023-08-01T12:24:26;98951.41;;;23.65;76.31
18749;BME280;9503;53.560;10.246;2023-08-01T12:26:54;98947.31;;;24.07;75.09
18749;BME280;9503;53.560;10.246;2023-08-01T12:29:21;98941.28;;;24.76;72.63
18749;BME280;9503;53.560;10.246;2023-08-01T12:31:48;98944.94;;;25.60;71.12
18749;BME280;9503;53.560;10.246;2023-08-01T12:34:14;98947.63;;;25.16;69.80
18749;BME280;9503;53.560;10.246;2023-08-01T12:36:41;98949.91;;;25.46;70.55
18749;BME280;9503;53.560;10.246;2023-08-01T12:39:08;98950.34;;;24.91;72.18
18749;BME280;9503;53.560;10.246;2023-08-01T12:41:36;98958.25;;;25.13;71.00
18749;BME280;9503;53.560;10.246;2023-08-01T12:44:04;98959.47;;;24.34;71.81
18749;BME280;9503;53.560;10.246;2023-08-01T12:46:31;98967.19;;;24.39;73.60
18749;BME280;9503;53.560;10.246;2023-08-01T12:48:58;98956.47;;;24.68;72.98
18749;BME280;9503;53.560;10.246;2023-08-01T12:51:24;98961.00;;;24.87;71.54
18749;BME280;9503;53.560;10.246;2023-08-01T12:53:51;98965.00;;;24.73;71.32
18749;BME280;9503;53.560;10.246;2023-08-01T12:56:18;98966.66;;;25.43;69.72
18749;BME280;9503;53.560;10.246;2023-08-01T12:58:44;98966.25;;;25.52;68.29
18749;BME280;9503;53.560;10.246;2023-08-01T13:01:12;98967.69;;;25.17;68.79